Time;durP1;ratioP1;P1;durP2;ratioP2;P2;SDS_P1;SDS_P2;PMS_P1;PMS_P2;Temp;Humidity;BMP_temperature;BMP_pressure;BME280_temperature;BME280_humidity;BME280_pressure;Samples;Min_cycle;Max_cycle;Signal;HPM_P1;HPM_P2
2022/10/29 00:02:12;;;;;;;35.10;8.65;;;;;;;;;;6240315;22;20069;-89
2022/10/29 00:04:38;;;;;;;40.38;7.95;;;;;;;;;;6217777;22;20390;-89
2022/10/29 00:07:04;;;;;;;53.83;9.77;;;;;;;;;;6241836;22;20003;-89
2022/10/29 00:09:30;;;;;;;42.63;8.23;;;;;;;;;;6216603;22;20405;-88
2022/10/29 00:11:56;;;;;;;47.22;8.43;;;;;;;;;;6216113;22;20878;-89
2022/10/29 00:14:22;;;;;;;46.90;8.73;;;;;;;;;;6240831;22;20008;-89
2022/10/29 00:16:48;;;;;;;43.67;9.35;;;;;;;;;;6242232;22;20012;-88
2022/10/29 00:19:14;;;;;;;54.05;9.00;;;;;;;;;;6216404;22;20035;-89
2022/10/29 00:21:49;;;;;;;46.67;8.85;;;;;;;;;;6216950;22;20007;-89
2022/10/29 00:24:16;;;;;;;48.75;8.70;;;;;;;;;;6269802;22;20026;-89
2022/10/29 00:26:42;;;;;;;41.30;8.23;;;;;;;;;;6268068;22;19999;-89
2022/10/29 00:29:08;;;;;;;44.03;8.50;;;;;;;;;;6217413;22;20065;-89
2022/10/29 00:31:41;;;;;;;53.70;8.80;;;;;;;;;;6184969;22;20085;-89
2022/10/29 00:34:07;;;;;;;43.67;7.95;;;;;;;;;;6209337;23;20088;-89
2022/10/29 00:36:33;;;;;;;44.00;9.13;;;;;;;;;;6234512;23;20035;-89
2022/10/29 00:38:59;;;;;;;35.80;8.13;;;;;;;;;;6208527;23;20318;-89
2022/10/29 00:41:26;;;;;;;49.53;9.10;;;;;;;;;;6209165;23;20412;-89
2022/10/29 00:44:12;;;;;;;38.88;7.95;;;;;;;;;;6234134;23;20005;-88
2022/10/29 00:46:39;;;;;;;52.58;9.27;;;;;;;;;;6232751;23;20005;-88
2022/10/29 00:49:06;;;;;;;49.22;9.32;;;;;;;;;;6234114;23;20016;-89
2022/10/29 00:51:32;;;;;;;40.17;9.20;;;;;;;;;;6209510;23;20070;-89
2022/10/29 00:54:02;;;;;;;40.40;9.57;;;;;;;;;;6207933;23;20326;-89
2022/10/29 00:56:29;;;;;;;42.67;9.35;;;;;;;;;;6233064;23;20381;-88
2022/10/29 00:58:55;;;;;;;49.38;9.68;;;;;;;;;;6208024;23;20086;-89
2022/10/29 01:01:24;;;;;;;49.45;9.93;;;;;;;;;;6206374;23;20051;-89
2022/10/29 01:03:51;;;;;;;59.80;11.23;;;;;;;;;;6206973;23;20004;-88
2022/10/29 01:06:17;;;;;;;74.93;11.43;;;;;;;;;;6207838;23;20068;-88
2022/10/29 01:08:43;;;;;;;48.60;10.85;;;;;;;;;;6178628;23;20074;-88
2022/10/29 01:11:22;;;;;;;48.08;11.15;;;;;;;;;;6182339;23;20013;-88
2022/10/29 01:13:52;;;;;;;55.63;10.05;;;;;;;;;;6209004;23;20318;-88
2022/10/29 01:16:35;;;;;;;50.60;10.73;;;;;;;;;;6209544;23;20008;-89
2022/10/29 01:19:12;;;;;;;60.75;11.27;;;;;;;;;;6209012;23;20012;-89
2022/10/29 01:21:44;;;;;;;47.88;11.48;;;;;;;;;;6207773;23;20306;-89
2022/10/29 01:24:19;;;;;;;73.20;12.50;;;;;;;;;;6206901;23;20058;-88
2022/10/29 01:27:04;;;;;;;63.00;12.60;;;;;;;;;;6209288;23;20004;-89
2022/10/29 01:29:39;;;;;;;62.20;12.13;;;;;;;;;;6206130;23;20340;-88
2022/10/29 01:32:18;;;;;;;59.13;11.53;;;;;;;;;;6270626;22;20023;-89
2022/10/29 01:34:47;;;;;;;80.00;13.20;;;;;;;;;;6273907;22;20189;-88
2022/10/29 01:37:18;;;;;;;66.05;13.70;;;;;;;;;;6273970;22;20000;-88
2022/10/29 01:39:50;;;;;;;90.32;15.43;;;;;;;;;;6273331;22;20042;-88
2022/10/29 01:42:19;;;;;;;90.97;13.88;;;;;;;;;;6249464;22;20006;-89
2022/10/29 01:45:03;;;;;;;60.05;13.05;;;;;;;;;;6247473;22;20004;-89
2022/10/29 01:47:31;;;;;;;72.10;15.68;;;;;;;;;;6274593;22;20427;-88
2022/10/29 01:50:00;;;;;;;56.60;10.68;;;;;;;;;;6247084;22;20438;-88
2022/10/29 01:52:28;;;;;;;61.45;11.98;;;;;;;;;;6248146;22;20007;-89
2022/10/29 01:54:54;;;;;;;63.47;13.15;;;;;;;;;;6248182;22;20018;-89
2022/10/29 01:57:27;;;;;;;77.75;13.10;;;;;;;;;;6221574;22;20011;-89
2022/10/29 01:59:53;;;;;;;57.47;11.40;;;;;;;;;;6274005;22;20000;-89
2022/10/29 02:02:22;;;;;;;93.03;13.93;;;;;;;;;;6249502;22;20008;-88
2022/10/29 02:04:54;;;;;;;67.90;12.73;;;;;;;;;;6245383;22;20007;-89
2022/10/29 02:07:28;;;;;;;68.15;13.32;;;;;;;;;;6274150;22;20069;-89
2022/10/29 02:10:17;;;;;;;66.85;12.20;;;;;;;;;;6273367;22;20015;-90
2022/10/29 02:12:48;;;;;;;71.50;10.98;;;;;;;;;;6177456;22;20011;-88
2022/10/29 02:15:21;;;;;;;78.75;13.63;;;;;;;;;;6222114;22;20012;-88
2022/10/29 02:17:47;;;;;;;59.85;12.52;;;;;;;;;;6244654;22;20007;-89
2022/10/29 02:20:14;;;;;;;78.22;13.35;;;;;;;;;;6245778;22;20061;-89
2022/10/29 02:22:40;;;;;;;58.72;11.40;;;;;;;;;;6248738;22;20499;-89
2022/10/29 02:25:06;;;;;;;66.05;11.32;;;;;;;;;;6224712;22;20014;-89
2022/10/29 02:27:35;;;;;;;78.55;12.43;;;;;;;;;;6247879;22;20007;-89
2022/10/29 02:30:16;;;;;;;93.43;13.93;;;;;;;;;;6249363;22;20549;-89
2022/10/29 02:32:50;;;;;;;88.88;13.70;;;;;;;;;;6226793;22;20016;-89
2022/10/29 02:35:16;;;;;;;73.40;12.40;;;;;;;;;;6249090;22;20016;-89
2022/10/29 02:37:43;;;;;;;64.15;11.82;;;;;;;;;;6221426;22;20511;-89
2022/10/29 02:40:10;;;;;;;121.53;13.82;;;;;;;;;;6222934;22;20011;-89
2022/10/29 02:42:36;;;;;;;76.82;10.23;;;;;;;;;;6246615;22;20003;-89
2022/10/29 02:45:02;;;;;;;57.22;11.18;;;;;;;;;;6221862;22;20008;-87
2022/10/29 02:47:32;;;;;;;54.97;10.18;;;;;;;;;;6247554;22;20150;-89
2022/10/29 02:49:58;;;;;;;94.13;14.75;;;;;;;;;;6249433;22;20412;-89
2022/10/29 02:52:24;;;;;;;89.28;12.05;;;;;;;;;;6221578;22;20022;-89
2022/10/29 02:54:50;;;;;;;107.07;14.75;;;;;;;;;;6222963;22;20015;-89
2022/10/29 02:57:16;;;;;;;71.38;10.73;;;;;;;;;;6222573;22;20030;-88
2022/10/29 02:59:42;;;;;;;80.10;14.27;;;;;;;;;;6248194;22;20008;-89
2022/10/29 03:02:08;;;;;;;135.60;16.70;;;;;;;;;;6274396;22;20011;-88
2022/10/29 03:04:34;;;;;;;70.07;11.88;;;;;;;;;;6247138;22;20454;-89
2022/10/29 03:07:02;;;;;;;55.05;10.88;;;;;;;;;;6223422;22;20075;-88
2022/10/29 03:09:28;;;;;;;74.32;11.77;;;;;;;;;;6247958;22;20057;-89
2022/10/29 03:11:54;;;;;;;58.20;11.35;;;;;;;;;;6248593;22;20528;-89
2022/10/29 03:14:20;;;;;;;80.10;14.05;;;;;;;;;;6222848;22;20007;-89
2022/10/29 03:16:47;;;;;;;59.10;12.30;;;;;;;;;;6274919;22;20011;-89
2022/10/29 03:19:13;;;;;;;96.93;13.27;;;;;;;;;;6247868;22;20011;-89
2022/10/29 03:21:39;;;;;;;93.35;11.65;;;;;;;;;;6250170;22;20066;-88
2022/10/29 03:24:06;;;;;;;96.35;11.73;;;;;;;;;;6248007;22;20347;-89
2022/10/29 03:26:32;;;;;;;107.97;12.82;;;;;;;;;;6248890;22;20340;-89
2022/10/29 03:28:58;;;;;;;91.45;11.38;;;;;;;;;;6248940;22;20094;-89
2022/10/29 03:31:24;;;;;;;50.17;7.72;;;;;;;;;;6247698;22;20011;-89
2022/10/29 03:33:50;;;;;;;73.28;8.73;;;;;;;;;;6189514;22;20380;-88
2022/10/29 03:36:16;;;;;;;89.88;9.32;;;;;;;;;;6212589;23;20019;-89
2022/10/29 03:38:42;;;;;;;92.28;10.63;;;;;;;;;;6210319;23;20013;-88
2022/10/29 03:41:09;;;;;;;44.45;7.22;;;;;;;;;;6188707;23;20055;-89
2022/10/29 03:43:39;;;;;;;57.67;8.45;;;;;;;;;;6242741;23;20059;-89
2022/10/29 03:46:05;;;;;;;58.47;9.60;;;;;;;;;;6241317;23;20011;-89
2022/10/29 03:48:32;;;;;;;40.17;7.35;;;;;;;;;;6241148;23;20416;-90
2022/10/29 03:51:00;;;;;;;51.80;8.32;;;;;;;;;;6238489;23;20460;-89
2022/10/29 03:53:26;;;;;;;81.38;11.32;;;;;;;;;;6214208;23;20005;-88
2022/10/29 03:55:53;;;;;;;83.07;8.40;;;;;;;;;;6188359;23;20424;-88
2022/10/29 03:58:19;;;;;;;84.15;9.90;;;;;;;;;;6214310;23;20008;-88
2022/10/29 04:00:55;;;;;;;85.60;10.02;;;;;;;;;;6212793;23;20213;-89
2022/10/29 04:03:21;;;;;;;70.68;9.50;;;;;;;;;;6212387;23;20318;-88
2022/10/29 04:05:47;;;;;;;47.28;8.35;;;;;;;;;;6210215;23;20013;-88
2022/10/29 04:08:15;;;;;;;79.40;11.23;;;;;;;;;;6237035;23;20352;-88
2022/10/29 04:10:46;;;;;;;52.78;9.07;;;;;;;;;;6212612;23;20043;-88
2022/10/29 04:13:12;;;;;;;61.63;10.40;;;;;;;;;;6236147;23;20529;-88
2022/10/29 04:15:39;;;;;;;43.28;8.75;;;;;;;;;;6211163;23;20011;-89
2022/10/29 04:18:05;;;;;;;58.35;9.82;;;;;;;;;;6238124;23;20063;-88
2022/10/29 04:20:31;;;;;;;56.90;9.63;;;;;;;;;;6237914;23;20254;-88
2022/10/29 04:22:57;;;;;;;67.57;9.68;;;;;;;;;;6238314;23;20468;-89
2022/10/29 04:25:23;;;;;;;55.30;8.73;;;;;;;;;;6212257;23;20367;-88
2022/10/29 04:27:49;;;;;;;23.88;7.50;;;;;;;;;;6211006;23;20001;-88
2022/10/29 04:30:15;;;;;;;43.88;9.30;;;;;;;;;;6212797;23;20012;-88
2022/10/29 04:32:41;;;;;;;49.00;9.25;;;;;;;;;;6214055;22;20017;-88
2022/10/29 04:35:07;;;;;;;43.22;8.57;;;;;;;;;;6236709;23;20289;-88
2022/10/29 04:37:33;;;;;;;49.60;9.15;;;;;;;;;;6212072;23;20532;-88
2022/10/29 04:40:01;;;;;;;55.15;9.30;;;;;;;;;;6238046;23;20051;-88
2022/10/29 04:42:28;;;;;;;41.03;8.18;;;;;;;;;;6213638;23;20077;-88
2022/10/29 04:44:54;;;;;;;52.58;9.25;;;;;;;;;;6212490;23;20340;-88
2022/10/29 04:47:20;;;;;;;46.65;8.93;;;;;;;;;;6212701;23;20013;-88
2022/10/29 04:49:46;;;;;;;31.02;7.85;;;;;;;;;;6213569;23;20020;-88
2022/10/29 04:52:12;;;;;;;29.20;8.20;;;;;;;;;;6211109;23;20097;-88
2022/10/29 04:54:38;;;;;;;24.13;7.72;;;;;;;;;;6211768;23;20564;-89
2022/10/29 04:57:04;;;;;;;32.13;9.02;;;;;;;;;;6235759;23;20020;-88
2022/10/29 04:59:30;;;;;;;37.13;8.55;;;;;;;;;;6213531;23;20016;-88
2022/10/29 05:01:56;;;;;;;50.20;10.75;;;;;;;;;;6212166;23;20005;-88
2022/10/29 05:04:22;;;;;;;42.38;9.10;;;;;;;;;;6188477;23;20047;-88
2022/10/29 05:06:48;;;;;;;65.32;10.70;;;;;;;;;;6211188;23;20602;-88
2022/10/29 05:09:14;;;;;;;44.75;9.63;;;;;;;;;;6214161;23;20009;-88
2022/10/29 05:11:40;;;;;;;50.20;9.90;;;;;;;;;;6211708;23;20091;-88
2022/10/29 05:14:06;;;;;;;45.35;9.45;;;;;;;;;;6213452;23;20079;-88
2022/10/29 05:16:32;;;;;;;49.08;9.65;;;;;;;;;;6211289;23;20392;-89
2022/10/29 05:19:01;;;;;;;41.70;9.35;;;;;;;;;;6239894;23;20062;-89
2022/10/29 05:21:27;;;;;;;38.50;7.65;;;;;;;;;;6215146;23;20012;-89
2022/10/29 05:23:53;;;;;;;45.80;9.93;;;;;;;;;;6214501;23;20009;-89
2022/10/29 05:26:19;;;;;;;57.63;9.77;;;;;;;;;;6213002;23;20449;-89
2022/10/29 05:28:48;;;;;;;54.55;10.60;;;;;;;;;;6212757;23;20480;-88
2022/10/29 05:31:14;;;;;;;60.47;10.27;;;;;;;;;;6212004;23;20314;-89
2022/10/29 05:33:40;;;;;;;44.35;8.45;;;;;;;;;;6214123;22;20025;-88
2022/10/29 05:36:07;;;;;;;51.17;8.77;;;;;;;;;;6209708;23;20012;-88
2022/10/29 05:38:33;;;;;;;49.53;9.68;;;;;;;;;;6212125;23;20501;-89
2022/10/29 05:40:59;;;;;;;38.47;9.80;;;;;;;;;;6213325;23;20009;-88
2022/10/29 05:43:25;;;;;;;48.58;9.55;;;;;;;;;;6239286;23;20012;-88
2022/10/29 05:45:51;;;;;;;53.78;10.23;;;;;;;;;;6216396;23;20009;-88
2022/10/29 05:48:17;;;;;;;51.38;9.63;;;;;;;;;;6191465;23;20027;-89
2022/10/29 05:50:43;;;;;;;37.28;9.20;;;;;;;;;;6218841;23;20008;-88
2022/10/29 05:53:10;;;;;;;41.67;9.75;;;;;;;;;;6240114;23;20013;-88
2022/10/29 05:55:37;;;;;;;45.10;9.15;;;;;;;;;;6242440;23;20451;-89
2022/10/29 05:58:04;;;;;;;55.97;8.88;;;;;;;;;;6215017;23;20009;-88
2022/10/29 06:00:31;;;;;;;42.35;8.50;;;;;;;;;;6240127;23;20385;-88
2022/10/29 06:02:58;;;;;;;60.00;11.10;;;;;;;;;;6238419;23;20027;-89
2022/10/29 06:05:24;;;;;;;39.55;9.27;;;;;;;;;;6188944;23;20008;-88
2022/10/29 06:07:57;;;;;;;46.13;9.65;;;;;;;;;;6239075;23;20009;-88
2022/10/29 06:10:24;;;;;;;36.15;9.13;;;;;;;;;;6216598;23;20012;-88
2022/10/29 06:12:50;;;;;;;52.83;8.05;;;;;;;;;;6213050;23;20091;-88
2022/10/29 06:15:17;;;;;;;45.65;9.77;;;;;;;;;;6238251;23;20031;-88
2022/10/29 06:17:43;;;;;;;50.97;11.32;;;;;;;;;;6213662;23;20013;-88
2022/10/29 06:20:10;;;;;;;43.42;8.60;;;;;;;;;;6214193;23;20019;-88
2022/10/29 06:22:36;;;;;;;38.30;8.75;;;;;;;;;;6212619;23;20005;-88
2022/10/29 06:25:02;;;;;;;50.55;10.18;;;;;;;;;;6239785;23;20017;-88
2022/10/29 06:27:28;;;;;;;35.50;10.07;;;;;;;;;;6214178;23;20000;-88
2022/10/29 06:29:54;;;;;;;64.47;11.88;;;;;;;;;;6214986;23;20040;-88
2022/10/29 06:32:20;;;;;;;64.57;10.32;;;;;;;;;;6192631;22;20020;-88
2022/10/29 06:34:46;;;;;;;55.75;10.95;;;;;;;;;;6189100;23;20012;-88
2022/10/29 06:37:13;;;;;;;58.40;11.23;;;;;;;;;;6186722;23;20013;-88
2022/10/29 06:39:39;;;;;;;51.00;11.02;;;;;;;;;;6212067;23;20012;-88
2022/10/29 06:42:05;;;;;;;65.75;11.40;;;;;;;;;;6188599;23;20005;-88
2022/10/29 06:44:33;;;;;;;44.47;11.00;;;;;;;;;;6187429;23;20005;-88
2022/10/29 06:46:59;;;;;;;58.03;11.27;;;;;;;;;;6187301;23;20009;-88
2022/10/29 06:49:25;;;;;;;65.25;12.77;;;;;;;;;;6187156;23;20039;-88
2022/10/29 06:51:52;;;;;;;55.88;11.52;;;;;;;;;;6214369;23;20017;-88
2022/10/29 06:54:25;;;;;;;56.47;11.70;;;;;;;;;;6213625;23;20448;-89
2022/10/29 06:56:51;;;;;;;51.15;9.82;;;;;;;;;;6209641;23;20102;-89
2022/10/29 06:59:17;;;;;;;43.30;8.52;;;;;;;;;;6210747;23;20422;-88
2022/10/29 07:01:45;;;;;;;44.42;8.63;;;;;;;;;;6210105;23;20044;-88
2022/10/29 07:04:11;;;;;;;38.58;8.75;;;;;;;;;;6216990;23;20398;-89
2022/10/29 07:06:38;;;;;;;47.80;9.30;;;;;;;;;;6234892;23;20029;-88
2022/10/29 07:09:07;;;;;;;61.75;9.48;;;;;;;;;;6237263;23;20384;-88
2022/10/29 07:11:33;;;;;;;44.63;10.07;;;;;;;;;;6211379;23;20012;-88
2022/10/29 07:14:04;;;;;;;54.35;10.57;;;;;;;;;;6211181;23;20016;-89
2022/10/29 07:16:30;;;;;;;57.20;12.57;;;;;;;;;;6211191;23;20460;-88
2022/10/29 07:18:56;;;;;;;59.78;12.23;;;;;;;;;;6211626;23;20009;-88
2022/10/29 07:21:22;;;;;;;59.40;12.02;;;;;;;;;;6184619;23;20483;-88
2022/10/29 07:23:49;;;;;;;68.78;13.13;;;;;;;;;;6211945;23;20008;-89
2022/10/29 07:26:15;;;;;;;68.78;12.43;;;;;;;;;;6183690;23;20047;-89
2022/10/29 07:28:41;;;;;;;56.30;10.52;;;;;;;;;;6210908;23;20068;-88
2022/10/29 07:31:07;;;;;;;62.63;11.73;;;;;;;;;;6183841;23;20075;-89
2022/10/29 07:33:33;;;;;;;68.63;11.40;;;;;;;;;;6187097;22;20028;-89
2022/10/29 07:35:59;;;;;;;72.97;10.90;;;;;;;;;;6210726;23;20091;-89
2022/10/29 07:38:25;;;;;;;78.18;12.68;;;;;;;;;;6210672;23;20012;-89
2022/10/29 07:40:52;;;;;;;132.43;16.20;;;;;;;;;;6209825;23;20009;-88
2022/10/29 07:43:19;;;;;;;88.07;14.70;;;;;;;;;;6212091;23;20005;-89
2022/10/29 07:45:48;;;;;;;66.18;13.25;;;;;;;;;;6210660;23;20329;-89
2022/10/29 07:48:21;;;;;;;70.50;12.50;;;;;;;;;;6211955;23;20000;-89
2022/10/29 07:50:47;;;;;;;70.28;13.45;;;;;;;;;;6212378;23;20072;-88
2022/10/29 07:53:13;;;;;;;79.70;12.57;;;;;;;;;;6211127;23;20064;-88
2022/10/29 07:55:39;;;;;;;84.03;13.02;;;;;;;;;;6188007;23;20016;-88
2022/10/29 07:58:06;;;;;;;87.65;14.50;;;;;;;;;;6210797;23;20456;-88
2022/10/29 08:00:33;;;;;;;77.28;13.63;;;;;;;;;;6187471;23;20437;-88
2022/10/29 08:02:59;;;;;;;115.78;14.55;;;;;;;;;;6211929;23;20008;-88
2022/10/29 08:05:26;;;;;;;96.53;14.05;;;;;;;;;;6185438;23;20009;-89
2022/10/29 08:07:53;;;;;;;88.28;14.77;;;;;;;;;;6208683;23;20383;-87
2022/10/29 08:10:19;;;;;;;86.10;13.40;;;;;;;;;;6210463;23;20012;-88
2022/10/29 08:12:52;;;;;;;114.75;17.77;;;;;;;;;;6183060;23;20099;-88
2022/10/29 08:15:18;;;;;;;87.38;14.60;;;;;;;;;;6184283;23;20550;-88
2022/10/29 08:17:45;;;;;;;80.00;13.70;;;;;;;;;;6184989;23;20040;-88
2022/10/29 08:20:11;;;;;;;90.78;15.23;;;;;;;;;;6211350;23;20066;-89
2022/10/29 08:22:37;;;;;;;83.70;14.70;;;;;;;;;;6210936;23;20005;-88
2022/10/29 08:25:03;;;;;;;83.30;11.07;;;;;;;;;;6213590;23;20435;-89
2022/10/29 08:27:29;;;;;;;75.75;15.02;;;;;;;;;;6210033;23;20115;-88
2022/10/29 08:29:55;;;;;;;77.15;13.73;;;;;;;;;;6212036;23;20012;-89
2022/10/29 08:32:21;;;;;;;86.72;16.17;;;;;;;;;;6193070;22;20500;-89
2022/10/29 08:34:47;;;;;;;90.75;15.52;;;;;;;;;;6220479;22;20059;-89
2022/10/29 08:37:13;;;;;;;77.07;16.40;;;;;;;;;;6270239;22;20000;-88
2022/10/29 08:39:39;;;;;;;76.35;17.75;;;;;;;;;;6220085;22;20359;-89
2022/10/29 08:42:25;;;;;;;70.82;17.48;;;;;;;;;;6246230;22;20101;-88
2022/10/29 08:44:51;;;;;;;;;;;;;;;;;;6169912;22;20110;-89
2022/10/29 08:47:19;;;;;;;80.32;18.13;;;;;;;;;;6245207;22;20292;-88
2022/10/29 08:50:03;;;;;;;82.05;20.38;;;;;;;;;;6275941;22;20030;-89
2022/10/29 08:52:31;;;;;;;83.18;18.80;;;;;;;;;;6248726;22;20472;-88
2022/10/29 08:55:12;;;;;;;67.70;18.42;;;;;;;;;;6251027;22;20015;-89
2022/10/29 08:57:42;;;;;;;65.63;18.67;;;;;;;;;;6277245;22;20003;-89
2022/10/29 09:00:20;;;;;;;49.60;17.45;;;;;;;;;;6277454;22;20509;-89
2022/10/29 09:02:46;;;;;;;72.55;19.83;;;;;;;;;;6249636;22;20004;-89
2022/10/29 09:05:16;;;;;;;68.32;19.50;;;;;;;;;;6245660;22;20008;-89
2022/10/29 09:07:42;;;;;;;65.90;17.75;;;;;;;;;;6249865;22;20435;-89
2022/10/29 09:10:16;;;;;;;64.38;19.88;;;;;;;;;;6249287;22;20007;-89
2022/10/29 09:12:45;;;;;;;72.40;21.00;;;;;;;;;;6252514;22;20065;-88
2022/10/29 09:15:30;;;;;;;75.70;22.48;;;;;;;;;;6249618;22;20008;-88
2022/10/29 09:18:11;;;;;;;82.80;25.25;;;;;;;;;;6250323;22;20438;-88
2022/10/29 09:20:40;;;;;;;84.30;23.52;;;;;;;;;;6251192;22;20463;-89
2022/10/29 09:23:18;;;;;;;61.95;20.23;;;;;;;;;;6249009;22;20004;-89
2022/10/29 09:25:49;;;;;;;81.88;22.83;;;;;;;;;;6249564;22;20003;-89
2022/10/29 09:28:21;;;;;;;72.50;23.50;;;;;;;;;;6250219;22;20434;-88
2022/10/29 09:30:50;;;;;;;58.00;21.08;;;;;;;;;;6247598;22;20014;-88
2022/10/29 09:33:17;;;;;;;73.25;22.95;;;;;;;;;;6278730;22;20343;-89
2022/10/29 09:35:45;;;;;;;71.05;22.35;;;;;;;;;;6249711;22;20015;-89
2022/10/29 09:38:39;;;;;;;60.80;20.92;;;;;;;;;;6248618;22;20003;-89
2022/10/29 09:41:05;;;;;;;64.15;24.83;;;;;;;;;;6244292;22;20004;-89
2022/10/29 09:43:32;;;;;;;54.10;19.77;;;;;;;;;;6224899;22;20014;-88
2022/10/29 09:46:05;;;;;;;57.72;20.58;;;;;;;;;;6274813;22;20451;-88
2022/10/29 09:48:49;;;;;;;65.22;20.23;;;;;;;;;;6250511;22;20014;-88
2022/10/29 09:51:18;;;;;;;55.15;19.98;;;;;;;;;;6250669;22;20008;-88
2022/10/29 09:53:45;;;;;;;59.38;20.17;;;;;;;;;;6248108;22;20015;-88
2022/10/29 09:56:11;;;;;;;62.05;20.73;;;;;;;;;;6224109;22;20016;-89
2022/10/29 09:58:40;;;;;;;53.38;21.02;;;;;;;;;;6247050;22;20004;-87
2022/10/29 10:01:06;;;;;;;67.93;20.90;;;;;;;;;;6248998;22;20271;-88
2022/10/29 10:03:44;;;;;;;59.00;19.80;;;;;;;;;;6222471;22;20035;-89
2022/10/29 10:06:14;;;;;;;74.90;20.27;;;;;;;;;;6248011;22;20011;-89
2022/10/29 10:08:58;;;;;;;57.33;18.55;;;;;;;;;;6248427;22;20344;-89
2022/10/29 10:11:24;;;;;;;50.60;17.20;;;;;;;;;;6248711;22;20019;-89
2022/10/29 10:13:57;;;;;;;51.45;17.42;;;;;;;;;;6248451;22;20086;-88
2022/10/29 10:16:24;;;;;;;50.63;16.92;;;;;;;;;;6248086;22;20098;-88
2022/10/29 10:18:50;;;;;;;47.95;17.98;;;;;;;;;;6248528;22;20114;-89
2022/10/29 10:21:27;;;;;;;56.65;17.65;;;;;;;;;;6274007;22;20443;-89
2022/10/29 10:23:54;;;;;;;50.55;17.00;;;;;;;;;;6250930;22;20007;-89
2022/10/29 10:26:26;;;;;;;45.05;16.75;;;;;;;;;;6276732;22;20074;-88
2022/10/29 10:29:13;;;;;;;40.90;16.70;;;;;;;;;;6249902;22;20030;-89
2022/10/29 10:31:41;;;;;;;39.47;15.40;;;;;;;;;;6248546;22;20022;-89
2022/10/29 10:34:20;;;;;;;56.80;17.90;;;;;;;;;;6196072;22;20035;-88
2022/10/29 10:36:51;;;;;;;46.70;17.52;;;;;;;;;;6213434;23;20004;-88
2022/10/29 10:39:25;;;;;;;44.55;14.98;;;;;;;;;;6212578;23;20087;-88
2022/10/29 10:41:51;;;;;;;44.35;15.82;;;;;;;;;;6213714;23;20009;-89
2022/10/29 10:44:19;;;;;;;34.80;13.60;;;;;;;;;;6186730;23;20005;-89
2022/10/29 10:46:45;;;;;;;34.83;14.27;;;;;;;;;;6212961;23;20001;-89
2022/10/29 10:49:11;;;;;;;34.60;14.40;;;;;;;;;;6210002;23;20067;-89
2022/10/29 10:51:41;;;;;;;39.03;12.80;;;;;;;;;;6211805;23;20067;-89
2022/10/29 10:54:26;;;;;;;33.38;14.02;;;;;;;;;;6209793;23;20437;-89
2022/10/29 10:57:15;;;;;;;34.83;12.68;;;;;;;;;;6212005;23;20348;-90
2022/10/29 11:00:00;;;;;;;27.88;12.23;;;;;;;;;;6208546;23;20027;-89
2022/10/29 11:02:45;;;;;;;33.33;13.10;;;;;;;;;;6214662;23;20001;-89
2022/10/29 11:05:16;;;;;;;27.10;10.57;;;;;;;;;;6211299;23;20088;-90
2022/10/29 11:07:46;;;;;;;23.77;10.02;;;;;;;;;;6212387;23;20013;-90
2022/10/29 11:10:14;;;;;;;25.08;11.80;;;;;;;;;;6211593;23;20395;-90
2022/10/29 11:12:49;;;;;;;24.25;10.45;;;;;;;;;;6215812;23;20009;-90
2022/10/29 11:15:33;;;;;;;36.20;11.57;;;;;;;;;;6214956;23;20031;-90
2022/10/29 11:18:19;;;;;;;27.85;10.63;;;;;;;;;;6214525;23;20004;-90
2022/10/29 11:20:50;;;;;;;23.33;10.10;;;;;;;;;;6212128;23;20465;-90
2022/10/29 11:23:26;;;;;;;31.92;11.02;;;;;;;;;;6214439;23;20108;-90
2022/10/29 11:26:07;;;;;;;27.42;10.20;;;;;;;;;;6212661;23;20016;-90
2022/10/29 11:28:39;;;;;;;27.40;10.30;;;;;;;;;;6213613;23;20497;-90
2022/10/29 11:31:12;;;;;;;25.65;9.80;;;;;;;;;;6213152;23;20019;-90
2022/10/29 11:33:49;;;;;;;26.25;9.95;;;;;;;;;;6245913;22;20019;-90
2022/10/29 11:36:22;;;;;;;16.48;8.63;;;;;;;;;;6277739;22;20008;-90
2022/10/29 11:38:56;;;;;;;31.38;9.20;;;;;;;;;;6222206;22;20007;-90
2022/10/29 11:41:31;;;;;;;28.50;9.75;;;;;;;;;;6248287;22;20434;-90
2022/10/29 11:43:57;;;;;;;24.60;10.65;;;;;;;;;;6248828;22;20458;-90
2022/10/29 11:46:38;;;;;;;17.55;9.35;;;;;;;;;;6248335;22;20008;-89
2022/10/29 11:49:23;;;;;;;30.67;10.10;;;;;;;;;;6248885;22;20012;-90
2022/10/29 11:52:09;;;;;;;24.00;9.50;;;;;;;;;;6279816;22;20019;-90
2022/10/29 11:55:04;;;;;;;30.52;9.73;;;;;;;;;;6276206;22;20008;-90
2022/10/29 11:57:36;;;;;;;31.42;10.27;;;;;;;;;;6249296;22;20012;-90
2022/10/29 12:00:08;;;;;;;27.33;9.98;;;;;;;;;;6275144;22;20003;-90
2022/10/29 12:02:53;;;;;;;20.40;7.57;;;;;;;;;;6249467;22;20026;-90
2022/10/29 12:05:22;;;;;;;19.70;8.70;;;;;;;;;;6247813;22;20404;-90
2022/10/29 12:08:02;;;;;;;17.15;8.80;;;;;;;;;;6247840;22;20007;-90
2022/10/29 12:10:46;;;;;;;23.55;8.70;;;;;;;;;;6247836;22;20015;-90
2022/10/29 12:13:15;;;;;;;24.67;8.57;;;;;;;;;;6246783;22;20011;-90
2022/10/29 12:15:46;;;;;;;24.48;8.57;;;;;;;;;;6247927;22;20003;-90
2022/10/29 12:18:17;;;;;;;23.58;9.48;;;;;;;;;;6273826;22;20062;-90
2022/10/29 12:20:43;;;;;;;26.65;9.98;;;;;;;;;;6248603;22;20004;-90
2022/10/29 12:23:28;;;;;;;31.38;8.52;;;;;;;;;;6247024;22;20130;-90
2022/10/29 12:26:20;;;;;;;30.00;9.48;;;;;;;;;;6246489;22;20000;-90
2022/10/29 12:28:52;;;;;;;32.78;11.75;;;;;;;;;;6192087;22;20537;-90
2022/10/29 12:31:33;;;;;;;25.33;8.68;;;;;;;;;;6247418;22;20011;-90
2022/10/29 12:34:20;;;;;;;25.60;8.60;;;;;;;;;;6244872;22;20015;-90
2022/10/29 12:36:50;;;;;;;24.65;8.23;;;;;;;;;;6250381;22;20004;-89
2022/10/29 12:39:29;;;;;;;18.95;8.05;;;;;;;;;;6250863;22;20011;-90
2022/10/29 12:41:59;;;;;;;22.80;8.77;;;;;;;;;;6253887;22;20317;-90
2022/10/29 12:44:30;;;;;;;29.90;8.93;;;;;;;;;;6252218;22;20026;-90
2022/10/29 12:47:03;;;;;;;19.95;8.73;;;;;;;;;;6280062;22;20018;-90
2022/10/29 12:49:29;;;;;;;20.27;8.60;;;;;;;;;;6252437;22;20003;-90
2022/10/29 12:51:58;;;;;;;14.95;7.18;;;;;;;;;;6253749;22;20042;-90
2022/10/29 12:54:36;;;;;;;21.70;7.90;;;;;;;;;;6251915;22;20061;-90
2022/10/29 12:57:03;;;;;;;20.52;7.20;;;;;;;;;;6251812;22;20069;-90
2022/10/29 12:59:38;;;;;;;18.30;7.68;;;;;;;;;;6249405;22;20015;-90
2022/10/29 13:02:23;;;;;;;13.88;6.63;;;;;;;;;;6273006;22;20003;-90
2022/10/29 13:05:10;;;;;;;13.20;6.72;;;;;;;;;;6249358;22;20004;-88
2022/10/29 13:07:37;;;;;;;20.08;8.32;;;;;;;;;;6249697;22;20018;-89
2022/10/29 13:10:21;;;;;;;16.90;7.38;;;;;;;;;;6224284;22;20059;-90
2022/10/29 13:13:00;;;;;;;23.42;7.80;;;;;;;;;;6249520;22;20039;-90
2022/10/29 13:15:26;;;;;;;23.23;7.97;;;;;;;;;;6247045;22;19987;-91
2022/10/29 13:17:53;;;;;;;24.73;8.40;;;;;;;;;;6246720;22;20015;-90
2022/10/29 13:20:21;;;;;;;23.13;8.50;;;;;;;;;;6247419;22;20019;-90
2022/10/29 13:22:54;;;;;;;26.98;9.30;;;;;;;;;;6272782;22;20442;-91
2022/10/29 13:25:35;;;;;;;22.33;8.07;;;;;;;;;;6246510;22;20065;-90
2022/10/29 13:28:21;;;;;;;31.33;8.90;;;;;;;;;;6272700;22;20034;-90
2022/10/29 13:30:47;;;;;;;32.90;9.05;;;;;;;;;;6245450;22;20007;-90
2022/10/29 13:33:25;;;;;;;27.60;9.50;;;;;;;;;;6247755;22;20380;-90
2022/10/29 13:35:51;;;;;;;16.33;8.45;;;;;;;;;;6273306;22;20069;-90
2022/10/29 13:38:17;;;;;;;27.95;9.73;;;;;;;;;;6245551;22;20114;-91
2022/10/29 13:41:00;;;;;;;23.60;8.98;;;;;;;;;;6246833;22;20000;-90
2022/10/29 13:43:26;;;;;;;21.73;9.43;;;;;;;;;;6246604;22;20018;-90
2022/10/29 13:46:01;;;;;;;28.48;9.05;;;;;;;;;;6246960;22;20359;-90
2022/10/29 13:48:33;;;;;;;28.20;9.00;;;;;;;;;;6247226;22;20039;-90
2022/10/29 13:51:02;;;;;;;24.02;8.40;;;;;;;;;;6245696;22;20007;-90
2022/10/29 13:53:43;;;;;;;22.98;9.35;;;;;;;;;;6247079;22;20440;-90
2022/10/29 13:56:17;;;;;;;25.00;8.52;;;;;;;;;;6248117;22;20007;-90
2022/10/29 13:58:44;;;;;;;21.30;7.68;;;;;;;;;;6245613;22;20019;-90
2022/10/29 14:01:14;;;;;;;23.50;9.32;;;;;;;;;;6275852;22;20340;-90
2022/10/29 14:03:43;;;;;;;27.17;9.32;;;;;;;;;;6248405;22;20096;-90
2022/10/29 14:06:11;;;;;;;24.00;9.38;;;;;;;;;;6245753;22;20031;-90
2022/10/29 14:08:43;;;;;;;23.95;8.55;;;;;;;;;;6245782;22;20005;-90
2022/10/29 14:11:13;;;;;;;33.00;9.85;;;;;;;;;;6245805;22;20004;-90
2022/10/29 14:13:51;;;;;;;18.25;8.73;;;;;;;;;;6245681;22;20363;-90
2022/10/29 14:16:21;;;;;;;21.23;8.60;;;;;;;;;;6245004;22;20020;-90
2022/10/29 14:18:48;;;;;;;26.63;9.73;;;;;;;;;;6223436;22;20090;-90
2022/10/29 14:21:15;;;;;;;23.85;9.10;;;;;;;;;;6271307;22;20031;-90
2022/10/29 14:23:53;;;;;;;27.42;9.27;;;;;;;;;;6247817;22;20052;-90
2022/10/29 14:26:19;;;;;;;33.25;10.10;;;;;;;;;;6246117;22;20004;-90
2022/10/29 14:28:46;;;;;;;24.63;11.38;;;;;;;;;;6248615;22;20004;-90
2022/10/29 14:31:13;;;;;;;25.10;9.52;;;;;;;;;;6220534;22;20011;-90
2022/10/29 14:33:40;;;;;;;21.65;8.25;;;;;;;;;;6246231;22;20420;-90
2022/10/29 14:36:20;;;;;;;35.88;11.23;;;;;;;;;;6218185;22;20055;-89
2022/10/29 14:38:48;;;;;;;29.67;10.80;;;;;;;;;;6210878;23;20039;-90
2022/10/29 14:41:20;;;;;;;33.67;10.75;;;;;;;;;;6211043;23;20015;-90